Time;durP1;ratioP1;P1;durP2;ratioP2;P2;SDS_P1;SDS_P2;PMS_P1;PMS_P2;Temp;Humidity;BMP_temperature;BMP_pressure;BME280_temperature;BME280_humidity;BME280_pressure;Samples;Min_cycle;Max_cycle;Signal;HPM_P1;HPM_P2
2023/04/03 00:01:17;;;;;;;3.13;1.90;;;;;;;19.22;53.47;100771.91;5053073;28;20075;-50
2023/04/03 00:03:45;;;;;;;4.32;2.58;;;;;;;19.21;53.31;100765.69;5053186;28;20056;-48
2023/04/03 00:06:12;;;;;;;3.30;2.20;;;;;;;19.22;53.44;100769.22;5053605;28;20040;-47
2023/04/03 00:08:40;;;;;;;3.28;2.35;;;;;;;19.21;53.33;100762.16;5053225;28;20045;-48
2023/04/03 00:11:08;;;;;;;5.70;2.47;;;;;;;19.21;53.42;100756.78;5053381;28;20052;-50
2023/04/03 00:13:37;;;;;;;3.83;2.53;;;;;;;19.20;53.37;100758.63;5053123;28;20072;-48
2023/04/03 00:16:04;;;;;;;4.20;2.35;;;;;;;19.20;53.34;100766.69;5053552;28;20491;-49
2023/04/03 00:18:32;;;;;;;6.38;2.47;;;;;;;19.21;53.11;100756.78;5053250;28;20048;-49
2023/04/03 00:20:59;;;;;;;3.67;2.17;;;;;;;19.19;53.17;100753.38;5053346;28;20052;-50
2023/04/03 00:23:27;;;;;;;3.72;2.22;;;;;;;19.19;53.15;100754.22;5053271;28;20052;-48
2023/04/03 00:25:55;;;;;;;3.90;2.33;;;;;;;19.19;53.15;100758.72;5053188;28;20187;-50
2023/04/03 00:28:22;;;;;;;3.30;2.22;;;;;;;19.18;52.94;100760.56;5053169;28;20052;-49
2023/04/03 00:30:50;;;;;;;4.03;2.30;;;;;;;19.19;53.17;100758.72;5051941;28;20045;-49
2023/04/03 00:33:21;;;;;;;4.55;2.30;;;;;;;19.18;53.04;100767.78;5053176;28;20048;-49
2023/04/03 00:35:49;;;;;;;3.80;2.45;;;;;;;19.18;53.04;100762.41;5053392;28;20048;-47
2023/04/03 00:38:17;;;;;;;3.40;2.30;;;;;;;19.17;52.83;100764.25;5052960;28;20415;-48
2023/04/03 00:40:47;;;;;;;4.35;2.50;;;;;;;19.17;52.99;100766.94;5051792;28;20060;-49
2023/04/03 00:43:24;;;;;;;5.13;2.28;;;;;;;19.18;52.93;100768.63;5052629;28;20076;-49
2023/04/03 00:45:53;;;;;;;3.83;2.20;;;;;;;19.18;53.08;100760.56;5051679;28;20049;-49
2023/04/03 00:48:29;;;;;;;3.55;2.33;;;;;;;19.17;53.05;100761.56;5051289;28;20049;-49
2023/04/03 00:50:57;;;;;;;4.40;2.22;;;;;;;19.18;52.96;100755.22;5053035;28;20059;-48
2023/04/03 00:53:33;;;;;;;4.95;2.08;;;;;;;19.17;52.97;100755.34;5052889;28;20048;-50
2023/04/03 00:56:01;;;;;;;3.35;2.15;;;;;;;19.18;53.03;100759.72;5051582;28;20063;-51
2023/04/03 00:58:35;;;;;;;4.50;2.38;;;;;;;19.17;52.97;100750.81;5052935;28;20052;-50
2023/04/03 01:01:06;;;;;;;4.47;2.17;;;;;;;19.16;52.89;100749.13;5052968;28;20053;-48
2023/04/03 01:03:34;;;;;;;4.72;2.17;;;;;;;19.16;52.90;100751.81;5052845;28;20048;-49
2023/04/03 01:06:04;;;;;;;3.42;2.22;;;;;;;19.16;52.75;100749.13;5051177;28;20060;-49
2023/04/03 01:08:32;;;;;;;4.05;2.10;;;;;;;19.16;52.98;100753.63;5052937;28;20045;-48
2023/04/03 01:10:59;;;;;;;3.17;2.10;;;;;;;19.16;52.80;100751.81;5052787;28;20506;-49
2023/04/03 01:13:32;;;;;;;3.33;2.17;;;;;;;19.15;52.80;100755.47;5036826;28;20491;-48
2023/04/03 01:16:02;;;;;;;4.30;2.03;;;;;;;19.16;52.90;100754.50;5055040;28;20530;-49
2023/04/03 01:18:32;;;;;;;3.95;2.00;;;;;;;19.16;52.72;100748.25;5056407;28;20282;-50
2023/04/03 01:21:27;;;;;;;4.82;2.05;;;;;;;19.15;52.74;100744.72;5056292;28;20068;-49
2023/04/03 01:24:02;;;;;;;3.30;2.33;;;;;;;19.16;52.72;100737.53;5054352;28;20068;-50
2023/04/03 01:26:30;;;;;;;3.33;2.17;;;;;;;19.14;52.74;100740.34;5054770;28;20503;-51
2023/04/03 01:29:00;;;;;;;3.20;2.17;;;;;;;19.14;52.71;100745.72;5055950;28;20037;-49
2023/04/03 01:31:50;;;;;;;6.80;2.40;;;;;;;19.15;52.53;100749.25;5054552;28;20087;-48
2023/04/03 01:34:18;;;;;;;4.05;1.90;;;;;;;19.15;52.63;100741.19;5056080;28;20056;-49
2023/04/03 01:36:46;;;;;;;3.00;1.95;;;;;;;19.14;52.54;100734.97;5054426;28;20064;-48
2023/04/03 01:39:14;;;;;;;3.50;2.03;;;;;;;19.15;52.63;100727.78;5055638;28;20049;-51
2023/04/03 01:41:42;;;;;;;3.40;2.20;;;;;;;19.14;52.67;100731.47;5054874;28;20060;-48
2023/04/03 01:44:32;;;;;;;4.47;2.15;;;;;;;19.14;52.58;100729.63;5056398;28;20084;-50
2023/04/03 01:47:00;;;;;;;4.47;2.17;;;;;;;19.14;52.47;100729.63;5055123;28;20052;-50
2023/04/03 01:49:29;;;;;;;3.03;2.20;;;;;;;19.13;52.47;100722.56;5054552;28;20041;-48
2023/04/03 01:51:56;;;;;;;5.18;2.05;;;;;;;19.13;52.38;100727.94;5054733;28;20492;-52
2023/04/03 01:54:24;;;;;;;4.47;2.25;;;;;;;19.13;52.40;100730.63;5054092;28;20049;-50
2023/04/03 01:56:51;;;;;;;3.08;2.13;;;;;;;19.12;52.40;100736.97;5054483;28;20053;-48
2023/04/03 01:59:20;;;;;;;3.40;2.15;;;;;;;19.14;52.30;100744.88;5054218;28;20056;-49
2023/04/03 02:01:47;;;;;;;2.50;1.90;;;;;;;19.12;52.29;100739.66;5054421;28;20506;-48
2023/04/03 02:04:15;;;;;;;3.25;2.13;;;;;;;19.13;52.25;100735.13;5054350;28;20060;-50
2023/04/03 02:06:42;;;;;;;4.38;1.95;;;;;;;19.13;52.28;100732.44;5054385;28;20072;-47
2023/04/03 02:09:10;;;;;;;2.63;1.83;;;;;;;19.12;52.19;100733.41;5054201;28;20045;-49
2023/04/03 02:11:37;;;;;;;4.20;2.03;;;;;;;19.11;52.25;100735.25;5055267;28;20053;-49
2023/04/03 02:14:04;;;;;;;3.17;2.10;;;;;;;19.12;52.07;100739.66;5055314;28;20056;-47
2023/04/03 02:16:32;;;;;;;3.72;1.65;;;;;;;19.12;52.08;100745.03;5054463;28;20057;-49
2023/04/03 02:18:59;;;;;;;3.33;2.40;;;;;;;19.11;52.10;100753.19;5054022;28;20049;-48
2023/04/03 02:21:27;;;;;;;3.83;2.05;;;;;;;19.11;52.14;100748.66;5055357;28;20052;-47
2023/04/03 02:23:55;;;;;;;2.85;1.88;;;;;;;19.11;52.11;100745.97;5054731;28;20057;-49
2023/04/03 02:26:23;;;;;;;3.30;1.85;;;;;;;19.11;51.99;100747.81;5054300;28;20064;-48
2023/04/03 02:28:50;;;;;;;3.92;1.98;;;;;;;19.11;51.88;100753.19;5054982;28;20052;-52
2023/04/03 02:31:18;;;;;;;2.92;1.73;;;;;;;19.11;52.04;100747.81;5055011;28;20045;-49
2023/04/03 02:33:46;;;;;;;2.97;1.90;;;;;;;19.10;51.92;100733.56;5053568;28;20056;-49
2023/04/03 02:36:15;;;;;;;2.55;1.70;;;;;;;19.10;51.88;100738.06;5053884;28;20049;-49
2023/04/03 02:38:48;;;;;;;3.35;1.92;;;;;;;19.10;51.81;100740.75;5053111;28;20048;-51
2023/04/03 02:41:15;;;;;;;4.57;1.60;;;;;;;19.10;51.84;100743.44;5053748;28;20059;-48
2023/04/03 02:43:43;;;;;;;3.15;1.83;;;;;;;19.09;51.90;100737.22;5053553;28;20052;-49
2023/04/03 02:46:10;;;;;;;3.17;2.00;;;;;;;19.09;51.77;100742.59;5054913;28;20135;-49
2023/04/03 02:48:37;;;;;;;4.65;1.95;;;;;;;19.09;51.75;100739.91;5052924;28;20045;-50
2023/04/03 02:51:05;;;;;;;3.25;1.60;;;;;;;19.10;51.84;100735.38;5053260;28;20057;-49
2023/04/03 02:53:33;;;;;;;4.57;2.05;;;;;;;19.08;51.73;100729.28;5053169;28;20059;-49
2023/04/03 02:56:06;;;;;;;3.47;1.92;;;;;;;19.08;51.62;100732.84;5053346;28;20048;-49
2023/04/03 02:58:34;;;;;;;2.78;1.77;;;;;;;19.08;51.53;100738.22;5054417;28;20502;-51
2023/04/03 03:01:03;;;;;;;4.15;1.95;;;;;;;19.08;51.63;100738.22;5052979;28;20406;-50
2023/04/03 03:03:30;;;;;;;3.58;1.67;;;;;;;19.07;51.76;100728.44;5054220;28;20064;-48
2023/04/03 03:06:05;;;;;;;3.33;1.88;;;;;;;19.08;51.79;100737.34;5054401;28;20072;-49
2023/04/03 03:08:34;;;;;;;2.97;1.90;;;;;;;19.08;51.75;100740.03;5053161;28;20049;-49
2023/04/03 03:11:02;;;;;;;2.78;1.80;;;;;;;19.07;51.74;100736.50;5054104;28;20056;-47
2023/04/03 03:13:31;;;;;;;3.35;1.92;;;;;;;19.07;51.74;100727.59;5054218;28;20048;-49
2023/04/03 03:15:58;;;;;;;3.55;1.95;;;;;;;19.07;51.87;100732.97;5054175;28;20056;-52
2023/04/03 03:18:26;;;;;;;3.67;2.35;;;;;;;19.06;51.68;100729.44;5054121;28;20041;-50
2023/04/03 03:20:56;;;;;;;2.38;1.48;;;;;;;19.07;51.67;100733.81;5053937;28;20075;-48
2023/04/03 03:23:25;;;;;;;5.28;1.92;;;;;;;19.07;51.78;100728.44;5053222;28;20057;-50
2023/04/03 03:26:07;;;;;;;4.57;1.40;;;;;;;19.07;51.91;100728.44;5052453;28;20056;-49
2023/04/03 03:28:36;;;;;;;4.32;1.90;;;;;;;19.06;51.90;100712.50;5053086;28;20483;-49
2023/04/03 03:31:05;;;;;;;7.10;2.20;;;;;;;19.06;51.89;100721.38;5052839;28;20053;-50
2023/04/03 03:33:34;;;;;;;3.38;1.70;;;;;;;19.05;51.98;100717.00;5052554;28;20056;-51
2023/04/03 03:36:02;;;;;;;3.03;1.70;;;;;;;19.05;52.04;100708.13;5053787;28;20115;-49
2023/04/03 03:38:29;;;;;;;2.72;1.52;;;;;;;19.04;52.06;100707.28;5053799;28;20056;-49
2023/04/03 03:40:58;;;;;;;3.42;2.10;;;;;;;19.04;51.87;100709.94;5052120;28;20045;-48
2023/04/03 03:43:27;;;;;;;3.75;1.67;;;;;;;19.05;52.04;100713.47;5052457;28;20052;-48
2023/04/03 03:45:54;;;;;;;3.38;1.60;;;;;;;19.05;51.86;100710.78;5053824;28;20049;-50
2023/04/03 03:48:24;;;;;;;2.33;1.50;;;;;;;19.05;51.59;100705.44;5052363;28;20064;-49
2023/04/03 03:50:51;;;;;;;3.55;1.83;;;;;;;19.05;52.05;100710.78;5052147;28;20380;-50
2023/04/03 03:53:23;;;;;;;2.92;1.65;;;;;;;19.03;52.00;100711.75;5052161;28;20064;-53
2023/04/03 03:55:53;;;;;;;2.95;1.30;;;;;;;19.04;51.98;100715.31;5053450;28;20049;-49
2023/04/03 03:58:23;;;;;;;2.92;1.88;;;;;;;19.04;51.92;100712.63;5052584;28;20092;-48
2023/04/03 04:00:51;;;;;;;3.05;1.80;;;;;;;19.03;51.92;100721.63;5052068;28;20064;-50
2023/04/03 04:03:18;;;;;;;4.07;1.50;;;;;;;19.04;51.92;100718.00;5052352;28;20057;-49
2023/04/03 04:05:48;;;;;;;3.53;1.50;;;;;;;19.04;51.80;100728.72;5052423;28;20057;-49
2023/04/03 04:08:16;;;;;;;3.33;1.60;;;;;;;19.03;51.82;100718.97;5052101;28;20049;-49
2023/04/03 04:10:45;;;;;;;3.70;1.58;;;;;;;19.02;51.80;100725.31;5052132;28;20053;-48
2023/04/03 04:13:14;;;;;;;3.40;1.90;;;;;;;19.02;51.68;100725.31;5051896;28;20056;-48
2023/04/03 04:15:42;;;;;;;3.83;1.67;;;;;;;19.02;51.77;100717.25;5051965;28;20057;-50
2023/04/03 04:18:10;;;;;;;2.88;1.77;;;;;;;19.02;51.79;100725.31;5053275;28;20072;-49
2023/04/03 04:20:37;;;;;;;2.95;1.73;;;;;;;19.00;51.74;100730.81;5053275;28;20493;-47
2023/04/03 04:23:05;;;;;;;2.72;1.60;;;;;;;19.01;51.83;100731.66;5052128;28;20091;-47
2023/04/03 04:25:33;;;;;;;2.42;1.58;;;;;;;19.01;51.77;100740.56;5051917;28;20045;-50
2023/04/03 04:28:01;;;;;;;3.00;1.67;;;;;;;19.01;51.58;100737.03;5052914;28;20427;-48
2023/04/03 04:30:28;;;;;;;3.00;1.60;;;;;;;19.01;51.68;100735.19;5053002;28;20467;-51
2023/04/03 04:32:57;;;;;;;2.25;1.35;;;;;;;19.01;51.72;100734.34;5051779;28;20064;-50
2023/04/03 04:35:26;;;;;;;4.07;1.55;;;;;;;19.00;51.54;100740.72;5052057;28;20057;-52
2023/04/03 04:37:53;;;;;;;2.90;1.63;;;;;;;18.99;51.82;100734.47;5052910;28;20053;-49
2023/04/03 04:40:21;;;;;;;2.70;1.67;;;;;;;19.00;51.51;100738.03;5051936;28;20068;-51
2023/04/03 04:42:49;;;;;;;2.80;1.42;;;;;;;18.99;51.30;100737.16;5052975;28;20052;-49
2023/04/03 04:45:16;;;;;;;2.83;1.77;;;;;;;19.00;51.40;100740.72;5052876;28;20048;-49
2023/04/03 04:47:45;;;;;;;3.80;1.85;;;;;;;18.98;51.50;100734.59;5051663;28;20060;-49
2023/04/03 04:50:13;;;;;;;3.40;1.60;;;;;;;18.99;51.39;100736.31;5055671;28;20052;-48
2023/04/03 04:52:41;;;;;;;4.07;1.60;;;;;;;18.99;51.66;100737.16;5056694;28;20379;-49
2023/04/03 04:55:09;;;;;;;3.38;1.63;;;;;;;18.98;51.38;100734.59;5055533;28;20052;-47
2023/04/03 04:57:38;;;;;;;2.92;1.92;;;;;;;18.98;51.50;100734.59;5056659;28;20506;-48
2023/04/03 05:00:07;;;;;;;3.20;1.40;;;;;;;18.98;51.50;100746.19;5039139;28;20052;-47
2023/04/03 05:02:34;;;;;;;3.15;1.52;;;;;;;18.97;51.50;100749.88;5055155;28;20056;-48
2023/04/03 05:05:03;;;;;;;2.45;1.60;;;;;;;18.98;51.21;100746.19;5055048;28;20060;-50
2023/04/03 05:07:32;;;;;;;3.95;1.70;;;;;;;18.97;51.38;100749.00;5055124;28;20063;-49
2023/04/03 05:10:02;;;;;;;3.33;1.95;;;;;;;18.98;51.18;100753.38;5056219;28;20594;-49
2023/04/03 05:12:30;;;;;;;2.40;1.50;;;;;;;18.97;51.38;100743.66;5055015;28;20051;-52
2023/04/03 05:15:00;;;;;;;4.05;1.80;;;;;;;18.97;51.36;100757.06;5055214;28;20055;-49
2023/04/03 05:17:29;;;;;;;2.50;1.42;;;;;;;18.96;51.30;100752.69;5055191;28;20065;-50
2023/04/03 05:19:58;;;;;;;4.07;2.00;;;;;;;18.96;51.37;100756.22;5055099;28;20052;-49
2023/04/03 05:22:26;;;;;;;2.80;1.60;;;;;;;18.96;51.41;100753.53;5056440;28;20064;-49
2023/04/03 05:24:58;;;;;;;3.88;1.85;;;;;;;18.96;51.13;100755.38;5054705;28;20495;-48
2023/04/03 05:27:28;;;;;;;2.25;1.30;;;;;;;18.95;51.35;100759.84;5054725;28;20414;-47
2023/04/03 05:29:57;;;;;;;3.63;1.80;;;;;;;18.96;51.29;100768.78;5054611;28;20049;-47
2023/04/03 05:32:27;;;;;;;4.60;1.60;;;;;;;18.95;51.21;100775.09;5054280;28;20056;-48
2023/04/03 05:35:17;;;;;;;2.37;1.57;;;;;;;18.95;51.26;100767.91;5056143;28;20053;-50
2023/04/03 05:37:48;;;;;;;3.22;1.42;;;;;;;18.95;51.16;100772.41;5055205;28;20060;-50
2023/04/03 05:40:18;;;;;;;3.03;1.58;;;;;;;18.95;51.22;100775.09;5054561;28;20472;-48
2023/04/03 05:42:48;;;;;;;3.42;1.92;;;;;;;18.94;51.23;100785.00;5054607;28;20048;-50
2023/04/03 05:45:17;;;;;;;2.47;1.40;;;;;;;18.95;51.23;100783.16;5056002;28;20057;-47
2023/04/03 05:47:44;;;;;;;2.60;1.65;;;;;;;18.94;51.26;100784.13;5054091;28;20049;-49
2023/04/03 05:50:12;;;;;;;3.15;1.73;;;;;;;18.94;51.05;100785.00;5054302;28;20049;-49
2023/04/03 05:52:44;;;;;;;2.83;1.65;;;;;;;18.93;51.13;100783.28;5054369;28;20056;-49
2023/04/03 05:55:15;;;;;;;3.40;1.70;;;;;;;18.94;51.12;100792.19;5054790;28;20407;-48
2023/04/03 05:57:42;;;;;;;3.05;1.60;;;;;;;18.93;51.13;100785.13;5054383;28;20048;-50
2023/04/03 06:00:14;;;;;;;2.78;1.70;;;;;;;18.93;51.08;100774.41;5053297;28;20052;-48
2023/04/03 06:02:45;;;;;;;2.63;1.35;;;;;;;18.94;51.06;100786.81;5054479;28;20045;-48
2023/04/03 06:05:17;;;;;;;2.70;1.20;;;;;;;18.95;51.03;100788.53;5054522;28;20056;-49
2023/04/03 06:07:46;;;;;;;3.75;1.45;;;;;;;18.94;50.91;100784.13;5054025;28;20055;-48
2023/04/03 06:10:13;;;;;;;3.30;1.40;;;;;;;18.94;50.81;100794.88;5054197;28;20048;-47
2023/04/03 06:12:41;;;;;;;3.17;1.65;;;;;;;18.94;50.94;100790.34;5055317;28;20048;-48
2023/04/03 06:15:10;;;;;;;3.00;1.67;;;;;;;18.94;50.97;100790.34;5053987;28;20053;-50
2023/04/03 06:17:40;;;;;;;3.22;1.45;;;;;;;18.95;50.85;100793.88;5055069;28;20483;-50
2023/04/03 06:20:09;;;;;;;2.42;1.48;;;;;;;18.95;50.75;100793.88;5055381;28;20041;-48
2023/04/03 06:22:36;;;;;;;2.53;1.45;;;;;;;18.94;50.77;100787.66;5053449;28;20079;-50
2023/04/03 06:25:05;;;;;;;3.30;1.63;;;;;;;18.95;50.93;100804.63;5054724;28;20060;-49
2023/04/03 06:27:32;;;;;;;7.93;1.88;;;;;;;18.95;50.90;100808.16;5054618;28;20069;-54
2023/04/03 06:29:59;;;;;;;3.70;1.70;;;;;;;18.96;50.92;100795.63;5053912;28;20045;-49
2023/04/03 06:32:27;;;;;;;5.00;2.00;;;;;;;18.97;50.93;100799.97;5053965;28;20049;-50
2023/04/03 06:34:55;;;;;;;4.07;2.10;;;;;;;18.99;50.70;100806.91;5072653;28;20055;-49
2023/04/03 06:37:25;;;;;;;5.15;2.13;;;;;;;19.00;50.26;100805.09;5074609;28;20044;-52
2023/04/03 06:39:53;;;;;;;3.53;1.70;;;;;;;19.02;50.87;100805.81;5074815;28;20032;-54
2023/04/03 06:42:20;;;;;;;3.45;2.00;;;;;;;19.02;50.43;100806.66;5074472;28;20048;-53
2023/04/03 06:44:57;;;;;;;5.07;2.67;;;;;;;19.02;50.56;100806.66;5057520;28;20548;-54
2023/04/03 06:47:24;;;;;;;3.45;2.13;;;;;;;19.03;50.37;100804.81;5074839;28;20060;-54
2023/04/03 06:49:52;;;;;;;3.28;1.67;;;;;;;19.04;50.84;100819.97;5074532;28;20055;-50
2023/04/03 06:52:20;;;;;;;3.88;1.98;;;;;;;19.03;50.49;100811.03;5074535;28;20051;-51
2023/04/03 06:54:47;;;;;;;4.07;1.65;;;;;;;19.04;50.84;100819.97;5061668;28;20139;-54
2023/04/03 06:57:15;;;;;;;3.25;2.00;;;;;;;19.05;51.23;100820.81;5053879;28;20045;-57
2023/04/03 06:59:42;;;;;;;4.43;2.28;;;;;;;19.07;50.49;100821.50;5054188;28;20056;-56
2023/04/03 07:02:12;;;;;;;4.60;2.53;;;;;;;19.07;50.12;100825.03;5054330;28;20041;-55
2023/04/03 07:04:39;;;;;;;4.18;2.20;;;;;;;19.07;49.63;100825.03;5054390;28;20502;-57
2023/04/03 07:07:07;;;;;;;3.88;2.20;;;;;;;19.06;49.47;100809.09;5054272;28;20045;-56
2023/04/03 07:09:34;;;;;;;5.60;2.00;;;;;;;19.06;49.60;100815.28;5054194;28;20048;-58
2023/04/03 07:12:02;;;;;;;12.32;2.70;;;;;;;19.08;50.91;100826.75;5053007;28;20533;-58
2023/04/03 07:14:29;;;;;;;3.50;2.17;;;;;;;19.09;49.63;100817.72;5053883;28;20045;-57
2023/04/03 07:16:57;;;;;;;5.70;3.17;;;;;;;19.11;48.97;100820.25;5053925;28;20044;-58
2023/04/03 07:19:27;;;;;;;6.07;2.97;;;;;;;19.11;48.64;100826.47;5053779;28;20052;-58
2023/04/03 07:21:55;;;;;;;5.82;3.25;;;;;;;19.12;48.19;100832.69;5053845;28;20471;-57
2023/04/03 07:24:22;;;;;;;3.63;2.70;;;;;;;19.12;48.46;100830.88;5053699;28;20064;-54
2023/04/03 07:26:52;;;;;;;6.28;3.90;;;;;;;19.11;47.65;100831.84;5053657;28;20056;-52
2023/04/03 07:29:21;;;;;;;7.82;3.72;;;;;;;19.10;47.88;100832.84;5053403;28;20506;-53
2023/04/03 07:31:49;;;;;;;4.88;3.50;;;;;;;19.09;47.72;100824.94;5053503;28;20041;-54
2023/04/03 07:34:16;;;;;;;5.53;4.10;;;;;;;19.09;47.46;100838.34;5053622;28;20057;-54
2023/04/03 07:36:45;;;;;;;7.00;3.97;;;;;;;19.09;47.78;100843.72;5053557;28;20051;-57
2023/04/03 07:39:12;;;;;;;7.18;3.38;;;;;;;19.09;47.67;100849.94;5053152;28;20053;-57
2023/04/03 07:41:39;;;;;;;7.60;4.00;;;;;;;19.10;47.53;100851.63;5053478;28;20045;-58
2023/04/03 07:44:09;;;;;;;5.78;3.72;;;;;;;19.10;47.72;100856.97;5053154;28;20048;-57
2023/04/03 07:46:38;;;;;;;7.13;3.67;;;;;;;19.10;47.79;100856.97;5036585;28;20381;-51
2023/04/03 07:49:05;;;;;;;11.30;3.05;;;;;;;19.11;48.39;100853.31;5033975;28;20389;-52
2023/04/03 07:51:32;;;;;;;4.65;3.00;;;;;;;19.13;48.29;100851.38;5033335;28;20042;-53
2023/04/03 07:54:00;;;;;;;4.40;2.92;;;;;;;19.14;48.62;100847.69;5033278;28;20052;-51
2023/04/03 07:56:27;;;;;;;5.75;4.18;;;;;;;19.14;48.15;100847.69;5033878;28;20052;-55
2023/04/03 07:58:55;;;;;;;5.30;3.38;;;;;;;19.14;48.03;100853.06;5033070;28;20403;-55
2023/04/03 08:01:22;;;;;;;4.82;3.88;;;;;;;19.14;47.66;100853.06;5033017;28;20049;-55
2023/04/03 08:03:50;;;;;;;7.18;3.92;;;;;;;19.14;47.91;100844.16;5033043;28;20494;-55
2023/04/03 08:06:18;;;;;;;6.20;3.90;;;;;;;19.13;48.10;100840.63;5032848;28;20064;-51
2023/04/03 08:08:59;;;;;;;4.55;3.42;;;;;;;19.14;47.96;100847.69;5033038;28;20049;-53
2023/04/03 08:11:26;;;;;;;5.18;3.05;;;;;;;19.15;48.12;100849.38;5032056;28;20507;-53
2023/04/03 08:13:55;;;;;;;4.75;3.90;;;;;;;19.17;47.65;100846.59;5032784;28;20064;-53
2023/04/03 08:16:26;;;;;;;5.53;4.15;;;;;;;19.17;47.69;100847.44;5052008;28;20052;-51
2023/04/03 08:18:54;;;;;;;5.43;3.83;;;;;;;19.16;48.21;100848.44;5051393;28;20503;-51
2023/04/03 08:21:22;;;;;;;7.10;4.10;;;;;;;19.17;48.04;100846.59;5052713;28;20396;-52
2023/04/03 08:23:51;;;;;;;6.18;4.50;;;;;;;19.18;48.10;100837.56;5053258;28;20057;-52
2023/04/03 08:26:21;;;;;;;5.78;4.32;;;;;;;19.18;48.16;100849.13;5057175;28;20430;-54
2023/04/03 08:28:49;;;;;;;5.95;3.92;;;;;;;19.18;48.30;100846.44;5056931;28;20053;-55
2023/04/03 08:31:19;;;;;;;5.78;4.47;;;;;;;19.20;48.44;100849.00;5057027;28;20475;-53
2023/04/03 08:33:47;;;;;;;7.63;4.50;;;;;;;19.19;48.23;100845.47;5056902;28;20049;-49
2023/04/03 08:36:27;;;;;;;5.47;3.90;;;;;;;19.19;48.54;100845.47;5056354;28;20049;-54
2023/04/03 08:38:57;;;;;;;6.20;3.67;;;;;;;19.21;48.70;100851.56;5056941;28;20053;-52
2023/04/03 08:41:39;;;;;;;7.95;5.32;;;;;;;19.21;48.40;100842.66;5056664;28;20045;-51
2023/04/03 08:44:31;;;;;;;5.15;4.03;;;;;;;19.22;48.56;100841.69;5056529;28;20056;-48
2023/04/03 08:46:59;;;;;;;5.40;4.82;;;;;;;19.22;48.57;100850.56;5056884;28;20044;-52
2023/04/03 08:49:32;;;;;;;8.15;5.70;;;;;;;19.21;48.56;100848.88;5055723;28;20060;-54
2023/04/03 08:52:05;;;;;;;8.52;4.53;;;;;;;19.22;48.77;100842.53;5056530;28;20056;-54
2023/04/03 08:54:49;;;;;;;7.35;4.13;;;;;;;19.23;48.91;100846.91;5056324;28;20045;-55
2023/04/03 08:57:24;;;;;;;5.07;4.43;;;;;;;19.24;48.89;100839.69;5056326;28;20053;-55
2023/04/03 08:59:51;;;;;;;7.47;4.25;;;;;;;19.27;48.91;100845.66;5056435;28;20060;-55
2023/04/03 09:02:27;;;;;;;5.85;4.13;;;;;;;19.29;48.76;100842.88;5056276;28;20045;-53
2023/04/03 09:04:55;;;;;;;6.43;4.10;;;;;;;19.29;49.24;100840.19;5056512;28;20399;-51
2023/04/03 09:07:36;;;;;;;5.90;3.80;;;;;;;19.31;48.97;100831.97;5056435;28;20392;-53
2023/04/03 09:10:05;;;;;;;5.68;4.25;;;;;;;19.30;48.75;100839.19;5056359;28;20051;-52
2023/04/03 09:12:39;;;;;;;4.65;3.55;;;;;;;19.32;49.12;100849.78;5056238;28;20069;-51
2023/04/03 09:15:15;;;;;;;4.32;3.53;;;;;;;19.30;48.84;100841.88;5056346;28;20052;-55
2023/04/03 09:18:22;;;;;;;5.35;3.13;;;;;;;19.29;48.83;100836.66;5056390;28;20049;-54
2023/04/03 09:21:05;;;;;;;4.93;3.25;;;;;;;19.23;48.91;100835.31;5056212;28;20053;-55
2023/04/03 09:23:45;;;;;;;4.07;2.60;;;;;;;19.24;49.11;100837.00;5056080;28;20052;-55
2023/04/03 09:26:26;;;;;;;4.80;2.70;;;;;;;19.23;49.03;100835.31;5055988;28;20059;-52
2023/04/03 09:28:57;;;;;;;4.72;2.60;;;;;;;19.24;48.69;100837.91;5055951;28;20403;-51
2023/04/03 09:31:29;;;;;;;5.32;2.45;;;;;;;19.23;48.99;100844.22;5055862;28;20041;-52
2023/04/03 09:34:02;;;;;;;6.18;2.88;;;;;;;19.23;49.12;100838.00;5055623;28;20060;-54
2023/04/03 09:36:46;;;;;;;4.93;3.05;;;;;;;19.21;49.22;100835.47;5055846;28;20049;-53
2023/04/03 09:39:50;;;;;;;3.92;2.53;;;;;;;19.21;49.23;100838.16;5055878;28;20049;-53
2023/04/03 09:42:22;;;;;;;;;;;;;;;19.20;49.27;100836.47;5055401;28;20053;-53
2023/04/03 09:45:00;;;;;;;4.55;2.40;;;;;;;19.19;49.28;100839.25;5055804;28;20388;-53
2023/04/03 09:47:29;;;;;;;4.05;2.78;;;;;;;19.18;49.31;100838.41;5055680;28;20044;-54
2023/04/03 09:50:12;;;;;;;3.50;2.28;;;;;;;19.16;48.99;100835.00;5054970;28;20053;-56
2023/04/03 09:52:46;;;;;;;4.05;2.65;;;;;;;19.14;49.00;100833.44;5053502;28;20045;-55
2023/04/03 09:55:23;;;;;;;4.35;2.20;;;;;;;19.13;49.24;100829.91;5035503;28;20046;-53
2023/04/03 09:57:50;;;;;;;3.05;1.92;;;;;;;19.13;49.23;100829.06;5035433;28;20076;-53
2023/04/03 10:00:26;;;;;;;3.15;2.40;;;;;;;19.10;48.95;100824.78;5035596;28;20041;-51
2023/04/03 10:02:56;;;;;;;4.60;2.13;;;;;;;19.12;49.19;100816.59;5035267;28;20048;-54
2023/04/03 10:05:41;;;;;;;3.45;2.25;;;;;;;19.11;49.33;100826.47;5035135;28;20049;-55
2023/04/03 10:08:15;;;;;;;3.00;1.98;;;;;;;19.11;49.37;100826.47;5035186;28;20388;-54
2023/04/03 10:10:47;;;;;;;4.05;2.42;;;;;;;19.11;49.00;100817.59;5035322;28;20056;-55
2023/04/03 10:13:18;;;;;;;5.90;2.00;;;;;;;19.08;49.13;100815.16;5049936;28;20045;-57
2023/04/03 10:15:54;;;;;;;;;;;;;;;19.06;48.91;100809.09;5055899;28;20044;-54
2023/04/03 10:18:54;;;;;;;3.90;2.42;;;;;;;19.01;49.24;100810.31;5055195;28;19921;-55
2023/04/03 10:21:21;;;;;;;4.47;1.90;;;;;;;19.01;49.25;100810.31;5055153;28;20052;-51
2023/04/03 10:24:20;;;;;;;3.03;1.58;;;;;;;19.05;49.49;100821.66;5054482;28;20053;-52
2023/04/03 10:27:06;;;;;;;3.40;1.60;;;;;;;19.08;49.41;100809.78;5054935;28;20053;-54
2023/04/03 10:30:01;;;;;;;2.30;1.25;;;;;;;19.09;49.49;100815.03;5054932;28;20045;-54
2023/04/03 10:32:47;;;;;;;3.45;1.60;;;;;;;19.11;49.53;100817.59;5054750;28;20475;-56
2023/04/03 10:35:40;;;;;;;2.78;1.55;;;;;;;19.12;49.53;100812.09;5038618;28;20061;-50
2023/04/03 10:38:13;;;;;;;4.00;1.87;;;;;;;19.13;49.48;100810.25;5054608;28;20045;-52
2023/04/03 10:41:00;;;;;;;2.92;1.55;;;;;;;19.13;49.39;100813.78;5054277;28;20278;-50
2023/04/03 10:43:42;;;;;;;3.22;1.40;;;;;;;19.13;49.34;100799.53;5054452;28;20045;-54
2023/04/03 10:46:35;;;;;;;3.25;1.60;;;;;;;19.15;49.52;100805.59;5053313;28;20060;-53
2023/04/03 10:49:30;;;;;;;2.30;1.23;;;;;;;19.15;49.30;100795.72;5054521;28;20041;-54
2023/04/03 10:52:25;;;;;;;3.03;1.67;;;;;;;19.16;49.26;100796.56;5053928;28;20041;-56
2023/04/03 10:55:02;;;;;;;2.63;1.27;;;;;;;19.16;49.55;100797.44;5054097;28;20040;-50
2023/04/03 10:57:30;;;;;;;2.58;1.30;;;;;;;19.17;49.38;100798.28;5053936;28;20053;-53
2023/04/03 11:00:18;;;;;;;2.47;1.80;;;;;;;19.17;49.36;100791.09;5054157;28;20056;-52
2023/04/03 11:02:50;;;;;;;3.92;1.45;;;;;;;19.17;49.11;100791.09;5054108;28;20472;-53
2023/04/03 11:05:34;;;;;;;2.95;1.50;;;;;;;19.17;49.11;100796.44;5054264;28;20049;-55
2023/04/03 11:08:19;;;;;;;2.25;1.10;;;;;;;19.16;48.99;100794.75;5054160;28;20049;-55
2023/04/03 11:10:50;;;;;;;3.65;1.55;;;;;;;19.17;48.96;100795.59;5053776;28;20056;-55
2023/04/03 11:13:19;;;;;;;3.53;1.67;;;;;;;19.16;48.94;100800.13;5053547;28;20068;-53
2023/04/03 11:15:47;;;;;;;4.00;1.40;;;;;;;19.16;48.77;100786.72;5053948;28;20053;-55
2023/04/03 11:18:19;;;;;;;3.42;1.92;;;;;;;19.17;48.77;100783.03;5054089;28;20055;-53
2023/04/03 11:21:31;;;;;;;3.10;1.35;;;;;;;19.18;48.69;100783.88;5054141;28;20498;-54
2023/04/03 11:24:01;;;;;;;3.40;1.67;;;;;;;19.18;48.84;100783.88;5051820;28;20159;-55
2023/04/03 11:26:35;;;;;;;2.97;1.63;;;;;;;19.18;48.93;100776.69;5052811;28;20092;-54
2023/04/03 11:29:13;;;;;;;2.60;1.30;;;;;;;19.19;48.92;100769.47;5053861;28;20056;-55
2023/04/03 11:32:08;;;;;;;2.65;1.42;;;;;;;19.18;48.62;100765.94;5053584;28;20041;-52
2023/04/03 11:34:43;;;;;;;2.55;1.38;;;;;;;19.18;49.01;100763.25;5053487;28;20119;-51
2023/04/03 11:37:23;;;;;;;2.90;1.50;;;;;;;19.19;49.08;100772.16;5053518;28;20048;-50
2023/04/03 11:39:58;;;;;;;4.03;1.95;;;;;;;19.19;49.13;100759.59;5053561;28;20052;-50
2023/04/03 11:42:34;;;;;;;3.95;1.67;;;;;;;19.20;48.93;100760.44;5053766;28;20495;-53
2023/04/03 11:45:23;;;;;;;5.30;2.25;;;;;;;19.20;49.06;100749.69;5050379;28;20056;-49
2023/04/03 11:47:54;;;;;;;3.55;2.03;;;;;;;19.18;49.01;100752.53;5053410;28;20049;-51